PAUN/UNK METAR and TAF weather

Enter ICAO airport designator
Station Type Date Time Source
PAUN METAR 2019/04/22 17:56 UTC NOAA

PAUN 221756Z AUTO 00000KT 9SM -SN OVC034 M04/M07 A2930 RMK AO2 SLP926 P0000 60000 T10441067 11044 21072 56001 FZRANO


Station Type Date Time Source
PAUN Decoded METAR 2019/04/22 17:56 UTC NOAA

Unalakleet, AK, United States (PAUN) 63-53N 160-48W 6M
Apr 22, 2019 - 01:56 PM EDT / 2019.04.22 1756 UTC
Wind: Calm:0
Visibility: 9 mile(s):0
Sky conditions: overcast
Weather: light snow
Precipitation last hour: A trace
Temperature: 24.1 F (-4.4 C)
Dew Point: 19.9 F (-6.7 C)
Relative Humidity: 83%
Pressure (altimeter): 29.3 in. Hg (992 hPa)
Pressure tendency: 0.00 inches (0.1 hPa) lower than three hours ago
ob: PAUN 221756Z AUTO 00000KT 9SM -SN OVC034 M04/M07 A2930 RMK AO2 SLP926 P0000 60000 T10441067 11044 21072 56001 FZRANO
cycle: 18

Station Type Date Time Source
PAUN TAF 2019/04/22 18:40 UTC NOAA

TAF PAUN 221738Z 2218/2318 33012KT 3SM -SN BR SCT015 SCT025 OVC035
FM222100 30012KT 6SM -SN BR SCT025 BKN035 OVC050
FM230600 28006KT 6SM -SN BR SCT025 BKN035 OVC050

Example: see airport list